createdAt,value
2023-12-23T00:01:10.696Z,98252.98
2023-12-23T00:03:49.693Z,98253.17
2023-12-23T00:06:18.458Z,98242.33
2023-12-23T00:08:46.574Z,98242.61
2023-12-23T00:11:14.805Z,98241.61
2023-12-23T00:13:42.778Z,98229.34
2023-12-23T00:16:11.006Z,98216.48
2023-12-23T00:18:39.487Z,98207.00
2023-12-23T00:21:08.493Z,98199.66
2023-12-23T00:23:36.734Z,98203.66
2023-12-23T00:26:05.631Z,98208.98
2023-12-23T00:28:33.823Z,98200.39
2023-12-23T00:31:01.789Z,98190.23
2023-12-23T00:33:29.704Z,98188.42
2023-12-23T00:35:58.721Z,98203.85
2023-12-23T00:38:26.695Z,98219.68
2023-12-23T00:40:55.658Z,98223.83
2023-12-23T00:43:23.507Z,98230.68
2023-12-23T00:45:51.677Z,98222.55
2023-12-23T00:48:19.633Z,98216.65
2023-12-23T00:50:47.688Z,98217.83
2023-12-23T00:53:17.700Z,98217.64
2023-12-23T00:55:45.997Z,98217.30
2023-12-23T00:58:14.676Z,98215.85
2023-12-23T01:00:42.775Z,98200.61
2023-12-23T01:03:11.116Z,98196.94
2023-12-23T01:05:39.830Z,98204.02
2023-12-23T01:08:07.834Z,98205.52
2023-12-23T01:10:36.421Z,98209.44
2023-12-23T01:13:04.693Z,98223.58
2023-12-23T01:15:32.861Z,98243.58
2023-12-23T01:18:01.102Z,98233.31
2023-12-23T01:20:30.040Z,98222.34
2023-12-23T01:22:57.967Z,98222.95
2023-12-23T01:25:26.001Z,98229.56
2023-12-23T01:27:54.323Z,98230.57
2023-12-23T01:30:24.371Z,98237.81
2023-12-23T01:32:52.490Z,98244.76
2023-12-23T01:35:20.683Z,98243.33
2023-12-23T01:37:49.047Z,98240.20
2023-12-23T01:40:17.462Z,98234.62
2023-12-23T01:42:45.886Z,98229.80
2023-12-23T01:45:14.265Z,98214.60
2023-12-23T01:47:45.261Z,98208.06
2023-12-23T01:50:14.917Z,98204.10
2023-12-23T01:52:43.689Z,98207.73
2023-12-23T01:55:12.347Z,98207.08
2023-12-23T01:57:41.768Z,98195.42
2023-12-23T02:00:11.612Z,98191.10
2023-12-23T02:02:41.432Z,98203.19
2023-12-23T02:05:11.421Z,98219.43
2023-12-23T02:07:39.938Z,98232.63
2023-12-23T02:10:08.331Z,98232.67
2023-12-23T02:13:12.777Z,98233.69
2023-12-23T02:15:45.229Z,98227.77
2023-12-23T02:18:14.998Z,98228.39
2023-12-23T02:20:43.845Z,98227.45
2023-12-23T02:23:12.285Z,98226.42
2023-12-23T02:25:40.943Z,98226.11
2023-12-23T02:28:12.244Z,98226.81
2023-12-23T02:30:44.474Z,98220.35
2023-12-23T02:33:13.095Z,98225.70
2023-12-23T02:35:41.374Z,98209.56
2023-12-23T02:38:10.660Z,98230.27
2023-12-23T02:40:38.827Z,98212.36
2023-12-23T02:43:07.185Z,98207.10
2023-12-23T02:45:35.943Z,98192.90
2023-12-23T02:48:07.260Z,98181.20
2023-12-23T02:50:35.864Z,98166.77
2023-12-23T02:53:04.822Z,98157.23
2023-12-23T02:55:35.017Z,98149.48
2023-12-23T02:58:03.324Z,98144.88
2023-12-23T03:00:31.376Z,98144.96
2023-12-23T03:02:59.455Z,98148.91
2023-12-23T03:05:27.807Z,98155.55
2023-12-23T03:07:56.411Z,98162.49
2023-12-23T03:10:25.880Z,98162.21
2023-12-23T03:12:54.055Z,98168.86
2023-12-23T03:15:22.130Z,98165.17
2023-12-23T03:17:50.263Z,98165.05
2023-12-23T03:20:19.002Z,98169.21
2023-12-23T03:22:47.800Z,98169.09
2023-12-23T03:25:15.779Z,98168.60
2023-12-23T03:27:43.869Z,98170.43
2023-12-23T03:30:12.739Z,98162.05
2023-12-23T03:32:40.766Z,98170.93
2023-12-23T03:35:09.437Z,98154.64
2023-12-23T03:37:38.019Z,98144.15
2023-12-23T03:40:08.358Z,98173.92
2023-12-23T03:42:39.776Z,98192.15
2023-12-23T03:45:08.575Z,98185.27
2023-12-23T03:47:36.918Z,98191.38
2023-12-23T03:50:05.499Z,98203.96
2023-12-23T03:52:33.556Z,98207.17
2023-12-23T03:55:01.981Z,98221.94
2023-12-23T03:57:30.234Z,98234.14
2023-12-23T03:59:58.169Z,98248.59
2023-12-23T04:02:26.207Z,98261.46
2023-12-23T04:04:54.224Z,98263.36
2023-12-23T04:07:22.110Z,98268.02
2023-12-23T04:09:50.874Z,98273.12
2023-12-23T04:12:19.158Z,98260.94
2023-12-23T04:14:47.490Z,98255.46
2023-12-23T04:17:15.743Z,98232.41
2023-12-23T04:19:44.192Z,98215.81
2023-12-23T04:22:12.231Z,98210.55
2023-12-23T04:24:40.262Z,98209.09
2023-12-23T04:27:08.574Z,98199.14
2023-12-23T04:29:36.694Z,98221.09
2023-12-23T04:32:05.563Z,98205.30
2023-12-23T04:34:34.731Z,98228.25
2023-12-23T04:37:02.586Z,98234.94
2023-12-23T04:39:31.145Z,98247.27
2023-12-23T04:41:59.896Z,98264.28
2023-12-23T04:44:29.212Z,98283.55
2023-12-23T04:46:58.295Z,98287.91
2023-12-23T04:49:26.854Z,98296.51
2023-12-23T04:51:54.936Z,98308.95
2023-12-23T04:54:23.190Z,98314.38
2023-12-23T04:56:51.753Z,98323.41
2023-12-23T04:59:20.192Z,98325.70
2023-12-23T05:01:48.603Z,98320.65
2023-12-23T05:04:17.245Z,98317.14
2023-12-23T05:06:47.550Z,98342.17
2023-12-23T05:09:15.956Z,98368.16
2023-12-23T05:11:44.034Z,98383.79
2023-12-23T05:14:12.540Z,98388.77
2023-12-23T05:16:40.534Z,98367.86
2023-12-23T05:19:09.006Z,98363.12
2023-12-23T05:21:37.686Z,98357.19
2023-12-23T05:24:06.003Z,98350.56
2023-12-23T05:26:34.193Z,98321.17
2023-12-23T05:29:02.683Z,98313.35
2023-12-23T05:31:31.232Z,98308.07
2023-12-23T05:33:59.508Z,98335.23
2023-12-23T05:36:27.899Z,98364.98
2023-12-23T05:38:55.970Z,98392.55
2023-12-23T05:41:24.359Z,98396.91
2023-12-23T05:43:52.696Z,98409.02
2023-12-23T05:46:20.937Z,98405.55
2023-12-23T05:48:49.083Z,98410.84
2023-12-23T05:51:17.165Z,98419.92
2023-12-23T05:53:45.066Z,98428.02
2023-12-23T05:56:13.579Z,98431.58
2023-12-23T05:58:41.621Z,98428.83
2023-12-23T06:01:10.936Z,98429.13
2023-12-23T06:03:39.318Z,98427.90
2023-12-23T06:06:08.178Z,98424.61
2023-12-23T06:08:36.730Z,98424.94
2023-12-23T06:11:05.996Z,98418.38
2023-12-23T06:13:34.833Z,98422.42
2023-12-23T06:16:08.599Z,98422.70
2023-12-23T06:18:36.903Z,98425.48
2023-12-23T06:21:04.832Z,98427.81
2023-12-23T06:23:35.375Z,98426.73
2023-12-23T06:26:04.427Z,98434.23
2023-12-23T06:28:32.372Z,98429.80
2023-12-23T06:31:00.509Z,98428.77
2023-12-23T06:33:28.545Z,98431.38
2023-12-23T06:35:56.528Z,98433.91
2023-12-23T06:38:24.558Z,98451.31
2023-12-23T06:40:52.697Z,98466.48
2023-12-23T06:43:44.723Z,98467.63
2023-12-23T06:46:11.889Z,98462.51
2023-12-23T06:48:40.411Z,98458.48
2023-12-23T06:51:08.875Z,98458.40
2023-12-23T06:53:37.025Z,98460.89
2023-12-23T06:56:07.041Z,98458.46
2023-12-23T06:58:35.483Z,98467.81
2023-12-23T07:01:03.710Z,98467.42
2023-12-23T07:03:32.056Z,98469.89
2023-12-23T07:06:00.405Z,98486.36
2023-12-23T07:08:29.033Z,98497.42
2023-12-23T07:10:57.519Z,98507.98
2023-12-23T07:13:26.092Z,98513.35
2023-12-23T07:15:54.174Z,98515.48
2023-12-23T07:18:22.441Z,98514.98
2023-12-23T07:20:51.030Z,98513.48
2023-12-23T07:23:19.279Z,98521.66
2023-12-23T07:25:47.200Z,98522.05
2023-12-23T07:28:15.224Z,98521.65
2023-12-23T07:30:46.483Z,98536.65
2023-12-23T07:33:15.113Z,98543.94
2023-12-23T07:35:43.553Z,98551.23
2023-12-23T07:38:12.015Z,98561.23
2023-12-23T07:40:40.766Z,98564.06
2023-12-23T07:43:09.253Z,98571.75
2023-12-23T07:45:38.555Z,98576.36
2023-12-23T07:48:06.723Z,98586.77
2023-12-23T07:50:35.581Z,98587.39
2023-12-23T07:53:04.373Z,98596.67
2023-12-23T07:55:32.994Z,98601.39
2023-12-23T07:58:01.144Z,98602.73
2023-12-23T08:00:29.258Z,98603.23
2023-12-23T08:02:57.335Z,98603.30
2023-12-23T08:05:25.591Z,98606.94
2023-12-23T08:07:53.868Z,98612.46
2023-12-23T08:10:21.838Z,98608.40
2023-12-23T08:12:50.039Z,98610.34
2023-12-23T08:15:18.165Z,98618.48
2023-12-23T08:17:46.365Z,98632.48
2023-12-23T08:20:14.523Z,98645.22
2023-12-23T08:22:46.162Z,98656.61
2023-12-23T08:25:14.637Z,98663.21
2023-12-23T08:27:42.756Z,98669.46
2023-12-23T08:30:11.170Z,98671.95
2023-12-23T08:32:39.322Z,98687.65
2023-12-23T08:35:09.687Z,98691.88
2023-12-23T08:37:37.822Z,98695.23
2023-12-23T08:40:06.634Z,98696.96
2023-12-23T08:42:34.624Z,98706.20
2023-12-23T08:45:02.708Z,98695.03
2023-12-23T08:47:30.858Z,98695.55
2023-12-23T08:49:59.033Z,98699.95
2023-12-23T08:52:27.496Z,98708.14
2023-12-23T08:54:55.515Z,98714.11
2023-12-23T08:57:23.924Z,98715.64
2023-12-23T08:59:52.331Z,98725.50
2023-12-23T09:02:20.691Z,98734.07
2023-12-23T09:04:48.686Z,98735.35
2023-12-23T09:07:16.662Z,98742.48
2023-12-23T09:09:45.027Z,98745.34
2023-12-23T09:12:13.004Z,98745.61
2023-12-23T09:14:42.245Z,98754.06
2023-12-23T09:17:10.635Z,98755.39
2023-12-23T09:19:38.561Z,98758.79
2023-12-23T09:22:06.468Z,98765.40
2023-12-23T09:24:35.853Z,98773.91
2023-12-23T09:27:05.041Z,98788.11
2023-12-23T09:29:33.684Z,98787.89
2023-12-23T09:32:01.849Z,98795.69
2023-12-23T09:34:29.887Z,98809.44
2023-12-23T09:36:59.388Z,98798.57
2023-12-23T09:39:29.823Z,98783.79
2023-12-23T09:42:01.004Z,98785.28
2023-12-23T09:44:29.164Z,98781.23
2023-12-23T09:46:57.382Z,98784.11
2023-12-23T09:49:26.260Z,98797.44
2023-12-23T09:51:56.756Z,98810.70
2023-12-23T09:54:28.546Z,98828.74
2023-12-23T09:57:03.576Z,98836.35
2023-12-23T09:59:33.435Z,98841.45
2023-12-23T10:02:01.781Z,98848.12
2023-12-23T10:04:30.468Z,98863.77
2023-12-23T10:06:58.400Z,98862.18
2023-12-23T10:09:28.531Z,98867.02
2023-12-23T10:11:56.868Z,98865.95
2023-12-23T10:14:26.830Z,98865.70
2023-12-23T10:16:56.005Z,98879.04
2023-12-23T10:19:27.315Z,98883.65
2023-12-23T10:21:55.407Z,98897.52
2023-12-23T10:24:23.387Z,98901.85
2023-12-23T10:26:51.838Z,98899.59
2023-12-23T10:29:21.786Z,98893.59
2023-12-23T10:31:53.871Z,98883.77
2023-12-23T10:34:26.404Z,98879.46
2023-12-23T10:36:56.806Z,98877.79
2023-12-23T10:39:29.719Z,98880.85
2023-12-23T10:42:04.839Z,98875.33
2023-12-23T10:44:34.917Z,98864.89
2023-12-23T10:47:05.654Z,98867.58
2023-12-23T10:49:34.578Z,98876.98
2023-12-23T10:52:03.368Z,98875.17
2023-12-23T10:54:33.470Z,98871.63
2023-12-23T10:57:03.107Z,98864.26
2023-12-23T10:59:31.171Z,98866.42
2023-12-23T11:02:08.823Z,98862.91
2023-12-23T11:04:37.239Z,98860.65
2023-12-23T11:07:06.416Z,98856.84
2023-12-23T11:09:35.348Z,98852.33
2023-12-23T11:12:04.170Z,98856.80
2023-12-23T11:14:32.467Z,98853.23
2023-12-23T11:17:00.808Z,98849.35
2023-12-23T11:19:29.056Z,98837.93
2023-12-23T11:22:29.251Z,98830.77
2023-12-23T11:24:57.646Z,98825.10
2023-12-23T11:27:38.733Z,98823.23
2023-12-23T11:30:12.116Z,98822.30
2023-12-23T11:32:45.241Z,98825.52
2023-12-23T11:35:14.171Z,98817.86
2023-12-23T11:37:58.680Z,98819.24
2023-12-23T11:40:28.128Z,98817.98
2023-12-23T11:42:56.838Z,98823.37
2023-12-23T11:45:25.534Z,98827.73
2023-12-23T11:47:53.594Z,98829.83
2023-12-23T11:50:22.020Z,98835.44
2023-12-23T11:52:51.721Z,98835.95
2023-12-23T11:55:20.791Z,98833.23
2023-12-23T11:57:49.397Z,98835.59
2023-12-23T12:00:19.656Z,98838.49
2023-12-23T12:02:48.035Z,98845.45
2023-12-23T12:05:16.269Z,98852.36
2023-12-23T12:07:44.595Z,98856.66
2023-12-23T12:10:15.051Z,98860.61
2023-12-23T12:12:43.756Z,98865.59
2023-12-23T12:15:12.255Z,98859.43
2023-12-23T12:17:40.462Z,98852.46
2023-12-23T12:20:09.658Z,98845.48
2023-12-23T12:22:47.666Z,98845.05
2023-12-23T12:25:17.824Z,98844.04
2023-12-23T12:27:46.340Z,98850.05
2023-12-23T12:30:14.637Z,98852.49
2023-12-23T12:32:46.631Z,98850.88
2023-12-23T12:35:15.847Z,98856.55
2023-12-23T12:37:44.800Z,98856.96
2023-12-23T12:40:13.885Z,98856.51
2023-12-23T12:42:47.021Z,98860.84
2023-12-23T12:45:15.726Z,98867.05
2023-12-23T12:47:45.370Z,98867.14
2023-12-23T12:50:13.442Z,98865.66
2023-12-23T12:52:41.978Z,98860.20
2023-12-23T12:55:12.868Z,98855.77
2023-12-23T12:57:42.073Z,98856.70
2023-12-23T13:00:11.284Z,98855.02
2023-12-23T13:02:39.867Z,98855.95
2023-12-23T13:05:08.000Z,98862.77
2023-12-23T13:07:36.203Z,98863.02
2023-12-23T13:10:05.294Z,98859.91
2023-12-23T13:12:35.215Z,98858.19
2023-12-23T13:15:05.751Z,98863.23
2023-12-23T13:17:34.762Z,98863.80
2023-12-23T13:20:04.528Z,98859.70
2023-12-23T13:22:32.750Z,98860.26
2023-12-23T13:25:00.945Z,98860.29
2023-12-23T13:27:29.195Z,98856.38
2023-12-23T13:29:57.788Z,98858.06
2023-12-23T13:32:26.346Z,98867.92
2023-12-23T13:34:56.399Z,98870.21
2023-12-23T13:37:24.352Z,98865.09
2023-12-23T13:39:52.221Z,98864.23
2023-12-23T13:42:23.514Z,98862.34
2023-12-23T13:44:53.139Z,98856.65
2023-12-23T13:47:21.699Z,98857.40
2023-12-23T13:49:50.219Z,98856.80
2023-12-23T13:52:19.634Z,98850.39
2023-12-23T13:54:47.720Z,98853.91
2023-12-23T13:57:16.084Z,98855.63
2023-12-23T13:59:44.466Z,98856.25
2023-12-23T14:02:12.336Z,98856.05
2023-12-23T14:04:40.843Z,98864.88
2023-12-23T14:07:08.895Z,98867.97
2023-12-23T14:09:37.090Z,98865.45
2023-12-23T14:12:05.593Z,98867.27
2023-12-23T14:14:34.016Z,98867.34
2023-12-23T14:17:02.019Z,98870.80
2023-12-23T14:19:30.675Z,98871.20
2023-12-23T14:21:58.997Z,98878.83
2023-12-23T14:24:27.013Z,98887.35
2023-12-23T14:26:55.298Z,98886.25
2023-12-23T14:29:23.353Z,98883.58
2023-12-23T14:31:51.493Z,98888.27
2023-12-23T14:34:19.396Z,98888.34
2023-12-23T14:36:50.046Z,98882.34
2023-12-23T14:39:23.704Z,98879.48
2023-12-23T14:41:52.811Z,98879.88
2023-12-23T14:44:21.086Z,98880.10
2023-12-23T14:46:49.337Z,98878.45
2023-12-23T14:49:17.628Z,98881.22
2023-12-23T14:51:45.768Z,98885.05
2023-12-23T14:54:13.663Z,98886.15
2023-12-23T14:56:41.783Z,98890.16
2023-12-23T14:59:09.919Z,98890.59
2023-12-23T15:01:38.160Z,98885.46
2023-12-23T15:04:06.383Z,98883.63
2023-12-23T15:06:34.832Z,98882.70
2023-12-23T15:09:04.108Z,98878.27
2023-12-23T15:11:32.348Z,98883.73
2023-12-23T15:14:00.387Z,98886.37
2023-12-23T15:16:28.369Z,98892.88
2023-12-23T15:18:57.402Z,98892.02
2023-12-23T15:21:25.666Z,98895.65
2023-12-23T15:23:56.566Z,98901.38
2023-12-23T15:26:25.961Z,98906.70
2023-12-23T15:28:54.580Z,98918.70
2023-12-23T15:31:22.822Z,98925.04
2023-12-23T15:33:51.783Z,98927.16
2023-12-23T15:36:20.452Z,98931.16
2023-12-23T15:38:48.636Z,98938.95
2023-12-23T15:41:16.929Z,98939.64
2023-12-23T15:43:44.844Z,98946.08
2023-12-23T15:46:12.836Z,98947.36
2023-12-23T15:48:41.193Z,98944.12
2023-12-23T15:51:09.364Z,98952.25
2023-12-23T15:53:43.746Z,98960.76
2023-12-23T15:56:12.163Z,98973.24
2023-12-23T15:58:40.237Z,98982.80
2023-12-23T16:01:08.847Z,98986.88
2023-12-23T16:03:37.272Z,98988.87
2023-12-23T16:06:06.276Z,98994.16
2023-12-23T16:08:34.544Z,98996.15
2023-12-23T16:11:02.852Z,98997.83
2023-12-23T16:13:31.005Z,99003.95
2023-12-23T16:15:58.988Z,99004.02
2023-12-23T16:18:27.045Z,99001.19
2023-12-23T16:20:55.629Z,99008.83
2023-12-23T16:23:24.303Z,99010.83
2023-12-23T16:25:52.785Z,99012.80
2023-12-23T16:28:21.184Z,99014.04
2023-12-23T16:30:49.374Z,99019.91
2023-12-23T16:33:17.838Z,99021.27
2023-12-23T16:35:46.631Z,99016.73
2023-12-23T16:38:14.659Z,99018.17
2023-12-23T16:40:42.773Z,99022.55
2023-12-23T16:43:11.044Z,99029.68
2023-12-23T16:45:39.232Z,99035.42
2023-12-23T16:48:07.899Z,99043.88
2023-12-23T16:50:35.980Z,99043.98
2023-12-23T16:53:04.165Z,99039.58
2023-12-23T16:55:33.246Z,99040.14
2023-12-23T16:58:01.955Z,99034.86
2023-12-23T17:00:30.148Z,99032.70
2023-12-23T17:02:58.118Z,99036.17
2023-12-23T17:05:26.546Z,99041.38
2023-12-23T17:07:54.531Z,99044.33
2023-12-23T17:10:22.765Z,99046.42
2023-12-23T17:12:51.123Z,99047.64
2023-12-23T17:15:19.294Z,99046.14
2023-12-23T17:17:47.438Z,99042.03
2023-12-23T17:20:16.291Z,99043.73
2023-12-23T17:22:44.920Z,99051.09
2023-12-23T17:25:13.178Z,99047.16
2023-12-23T17:27:41.459Z,99049.39
2023-12-23T17:30:09.896Z,99043.55
2023-12-23T17:32:38.100Z,99042.17
2023-12-23T17:35:07.402Z,99042.86
2023-12-23T17:37:35.403Z,99049.02
2023-12-23T17:40:03.588Z,99052.46
2023-12-23T17:42:31.757Z,99055.20
2023-12-23T17:44:59.914Z,99057.95
2023-12-23T17:47:28.189Z,99057.79
2023-12-23T17:49:56.154Z,99053.17
2023-12-23T17:52:24.163Z,99054.04
2023-12-23T17:54:52.038Z,99056.42
2023-12-23T17:57:20.176Z,99061.90
2023-12-23T17:59:48.778Z,99064.46
2023-12-23T18:02:18.314Z,99063.59
2023-12-23T18:04:46.519Z,99062.93
2023-12-23T18:07:15.128Z,99061.55
2023-12-23T18:09:43.544Z,99058.59
2023-12-23T18:12:12.188Z,99054.08
2023-12-23T18:14:41.518Z,99050.45
2023-12-23T18:17:10.375Z,99056.92
2023-12-23T18:19:39.990Z,99053.30
2023-12-23T18:22:09.170Z,99055.54
2023-12-23T18:24:38.245Z,99056.24
2023-12-23T18:27:06.982Z,99055.86
2023-12-23T18:29:35.243Z,99057.05
2023-12-23T18:32:03.771Z,99059.61
2023-12-23T18:34:35.037Z,99064.20
2023-12-23T18:37:03.921Z,99064.19
2023-12-23T18:39:32.042Z,99062.66
2023-12-23T18:42:00.025Z,99064.23
2023-12-23T18:44:28.273Z,99061.48
2023-12-23T18:46:56.575Z,99058.40
2023-12-23T18:49:24.493Z,99057.34
2023-12-23T18:51:52.765Z,99062.64
2023-12-23T18:54:21.178Z,99062.98
2023-12-23T18:56:49.384Z,99058.70
2023-12-23T18:59:17.872Z,99059.22
2023-12-23T19:01:45.962Z,99062.30
2023-12-23T19:04:14.164Z,99063.13
2023-12-23T19:06:42.569Z,99063.45
2023-12-23T19:09:11.044Z,99060.68
2023-12-23T19:11:39.244Z,99058.08
2023-12-23T19:14:07.302Z,99055.48
2023-12-23T19:16:37.619Z,99052.02
2023-12-23T19:19:08.584Z,99051.84
2023-12-23T19:21:47.559Z,99053.02
2023-12-23T19:24:32.170Z,99055.23
2023-12-23T19:27:07.465Z,99059.19
2023-12-23T19:29:39.246Z,99064.98
2023-12-23T19:32:07.956Z,99061.19
2023-12-23T19:34:36.305Z,99064.77
2023-12-23T19:37:04.598Z,99070.95
2023-12-23T19:39:32.535Z,99074.56
2023-12-23T19:42:03.125Z,99073.54
2023-12-23T19:44:31.250Z,99079.34
2023-12-23T19:46:59.224Z,99077.27
2023-12-23T19:49:28.262Z,99078.86
2023-12-23T19:51:56.137Z,99081.45
2023-12-23T19:54:24.396Z,99082.48
2023-12-23T19:56:52.973Z,99083.38
2023-12-23T19:59:21.813Z,99085.98
2023-12-23T20:01:56.632Z,99086.53
2023-12-23T20:04:28.380Z,99087.91
2023-12-23T20:06:57.207Z,99086.27
2023-12-23T20:09:28.748Z,99087.59
2023-12-23T20:11:58.963Z,99093.34
2023-12-23T20:14:28.886Z,99097.73
2023-12-23T20:17:00.481Z,99100.37
2023-12-23T20:19:28.910Z,99105.58
2023-12-23T20:21:57.326Z,99102.33
2023-12-23T20:24:25.600Z,99100.98
2023-12-23T20:26:55.602Z,99104.09
2023-12-23T20:29:24.698Z,99096.73
2023-12-23T20:31:52.746Z,99094.73
2023-12-23T20:34:20.910Z,99091.38
2023-12-23T20:36:53.653Z,99096.89
2023-12-23T20:39:27.998Z,99101.89
2023-12-23T20:42:01.001Z,99108.73
2023-12-23T20:44:32.667Z,99103.27
2023-12-23T20:47:04.172Z,99100.05
2023-12-23T20:49:35.966Z,99099.86
2023-12-23T20:52:06.053Z,99101.27
2023-12-23T20:54:35.166Z,99100.26
2023-12-23T20:57:09.956Z,99098.88
2023-12-23T20:59:39.835Z,99101.95
2023-12-23T21:02:08.847Z,99109.78
2023-12-23T21:04:40.242Z,99113.87
2023-12-23T21:07:11.348Z,99119.50
2023-12-23T21:09:39.904Z,99127.55
2023-12-23T21:12:08.612Z,99128.55
2023-12-23T21:14:36.576Z,99120.48
2023-12-23T21:17:07.029Z,99115.51
2023-12-23T21:19:35.310Z,99110.70
2023-12-23T21:22:04.243Z,99110.05
2023-12-23T21:24:32.242Z,99116.20
2023-12-23T21:27:00.431Z,99123.40
2023-12-23T21:29:28.619Z,99134.55
2023-12-23T21:31:56.698Z,99138.83
2023-12-23T21:34:25.080Z,99141.90
2023-12-23T21:36:53.213Z,99142.73
2023-12-23T21:39:21.322Z,99139.45
2023-12-23T21:41:49.653Z,99146.83
2023-12-23T21:44:17.913Z,99153.66
2023-12-23T21:46:47.832Z,99160.15
2023-12-23T21:49:16.132Z,99162.67
2023-12-23T21:51:44.889Z,99167.66
2023-12-23T21:54:12.824Z,99167.34
2023-12-23T21:56:41.289Z,99170.42
2023-12-23T21:59:09.481Z,99172.29
2023-12-23T22:01:37.498Z,99174.00
2023-12-23T22:04:05.614Z,99178.45
2023-12-23T22:06:33.767Z,99186.20
2023-12-23T22:09:01.948Z,99188.20
2023-12-23T22:11:30.134Z,99187.67
2023-12-23T22:13:58.706Z,99187.48
2023-12-23T22:16:26.598Z,99189.59
2023-12-23T22:18:54.945Z,99188.61
2023-12-23T22:21:23.015Z,99189.85
2023-12-23T22:23:51.092Z,99200.66
2023-12-23T22:26:19.168Z,99203.09
2023-12-23T22:28:47.614Z,99204.64
2023-12-23T22:31:15.817Z,99210.13
2023-12-23T22:33:44.316Z,99209.79
2023-12-23T22:36:12.535Z,99204.11
2023-12-23T22:38:41.232Z,99200.57
2023-12-23T22:41:10.679Z,99204.05
2023-12-23T22:43:39.245Z,99209.59
2023-12-23T22:46:07.170Z,99213.39
2023-12-23T22:48:35.723Z,99213.05
2023-12-23T22:51:06.923Z,99210.80
2023-12-23T22:53:38.043Z,99212.70
2023-12-23T22:56:07.537Z,99216.67
2023-12-23T22:58:35.662Z,99220.63
2023-12-23T23:01:04.159Z,99221.30
2023-12-23T23:03:32.445Z,99215.84
2023-12-23T23:06:01.118Z,99212.41
2023-12-23T23:08:29.299Z,99212.44
2023-12-23T23:10:57.220Z,99216.56
2023-12-23T23:13:25.282Z,99225.16
2023-12-23T23:15:53.681Z,99232.71
2023-12-23T23:18:22.120Z,99237.16
2023-12-23T23:20:50.641Z,99241.27
2023-12-23T23:23:18.826Z,99246.76
2023-12-23T23:25:46.793Z,99248.39
2023-12-23T23:28:14.889Z,99253.70
2023-12-23T23:30:42.822Z,99258.50
2023-12-23T23:33:11.359Z,99267.06
2023-12-23T23:35:39.648Z,99267.90
2023-12-23T23:38:07.786Z,99273.39
2023-12-23T23:40:36.325Z,99274.92
2023-12-23T23:43:04.446Z,99275.77
2023-12-23T23:45:32.702Z,99283.14
2023-12-23T23:48:01.232Z,99287.27
2023-12-23T23:50:29.823Z,99291.72
2023-12-23T23:52:57.958Z,99296.53
2023-12-23T23:55:25.963Z,99299.60
2023-12-23T23:57:53.902Z,99301.49
